Time;durP1;ratioP1;P1;durP2;ratioP2;P2;SDS_P1;SDS_P2;PMS_P1;PMS_P2;Temp;Humidity;BMP_temperature;BMP_pressure;BME280_temperature;BME280_humidity;BME280_pressure;Samples;Min_cycle;Max_cycle;Signal;HPM_P1;HPM_P2
2023/01/19 00:02:57;;;;;;;34.63;5.63;;;;;;;14.11;42.76;96450.69;10287512;28;20073;-48
2023/01/19 00:07:55;;;;;;;;;;;;;;;14.22;42.41;96444.22;10292613;28;20022;-49
2023/01/19 00:12:54;;;;;;;25.83;4.82;;;;;;;14.28;41.68;96446.63;10291402;28;19936;-48
2023/01/19 00:17:53;;;;;;;;;;;;;;;14.37;41.30;96439.28;10294447;28;20018;-48
2023/01/19 00:22:52;;;;;;;30.40;4.80;;;;;;;14.51;40.74;96437.94;10293080;28;19963;-48
2023/01/19 00:27:51;;;;;;;;;;;;;;;14.50;41.04;96433.59;10294200;28;20581;-48
2023/01/19 00:32:49;;;;;;;32.70;5.72;;;;;;;14.48;40.94;96440.66;10277830;28;20376;-50
2023/01/19 00:37:49;;;;;;;;;;;;;;;14.58;40.86;96468.13;10291997;28;20481;-49
2023/01/19 00:42:48;;;;;;;33.50;6.07;;;;;;;14.62;41.29;96459.28;10291904;28;20469;-48
2023/01/19 00:47:47;;;;;;;;;;;;;;;14.52;41.19;96439.63;10290952;28;20072;-51
2023/01/19 00:52:46;;;;;;;34.90;6.43;;;;;;;14.51;41.05;96449.22;10291713;28;19945;-49
2023/01/19 00:57:45;;;;;;;;;;;;;;;14.54;41.10;96440.41;10291124;28;20372;-48
2023/01/19 01:02:44;;;;;;;21.77;4.90;;;;;;;14.48;40.95;96430.22;10292071;28;19919;-50
2023/01/19 01:07:48;;;;;;;;;;;;;;;14.43;40.98;96432.13;10292682;28;20133;-50
2023/01/19 01:12:47;;;;;;;30.92;5.35;;;;;;;14.37;40.62;96430.63;10291906;28;20363;-48
2023/01/19 01:17:46;;;;;;;29.92;7.13;;;;;;;14.46;40.27;96435.50;10291882;28;20068;-50
2023/01/19 01:22:48;;;;;;;25.92;4.80;;;;;;;14.48;39.97;96430.22;10290598;28;20081;-49
2023/01/19 01:27:47;;;;;;;43.22;12.38;;;;;;;14.47;39.43;96442.41;10289682;28;20082;-49
2023/01/19 01:32:46;;;;;;;;;;;;;;;14.61;39.40;96436.66;10289929;28;20072;-49
2023/01/19 01:37:45;;;;;;;24.60;4.40;;;;;;;14.34;39.44;96404.66;10290999;28;19917;-48
2023/01/19 01:42:44;;;;;;;;;;;;;;;14.57;37.97;96422.91;10289802;28;20036;-49
2023/01/19 01:47:46;;;;;;;21.30;4.13;;;;;;;14.74;37.75;96426.66;10291153;28;19960;-48
2023/01/19 01:53:09;;;;;;;21.58;4.57;;;;;;;14.75;37.52;96429.19;10289775;28;20104;-51
2023/01/19 01:58:10;;;;;;;28.08;6.00;;;;;;;14.47;37.12;96379.75;10290403;28;20066;-49
2023/01/19 02:03:09;;;;;;;26.20;4.82;;;;;;;14.91;36.65;96429.44;10291014;28;20108;-51
2023/01/19 02:13:29;;;;;;;17.93;3.73;;;;;;;15.02;35.67;96418.56;10273949;28;20510;-49
2023/01/19 02:18:31;;;;;;;22.35;5.53;;;;;;;15.14;35.25;96402.41;10290042;28;20076;-49
2023/01/19 02:23:38;;;;;;;19.40;3.67;;;;;;;15.18;34.57;96367.41;10290016;28;20084;-50
2023/01/19 02:28:42;;;;;;;23.50;6.20;;;;;;;15.50;33.27;96404.38;10289078;28;20088;-48
2023/01/19 02:33:41;;;;;;;21.75;4.63;;;;;;;15.83;33.60;96398.66;10288535;28;20080;-49
2023/01/19 02:38:40;;;;;;;;;;;;;;;15.91;33.21;96366.94;10272034;28;20026;-49
2023/01/19 02:43:41;;;;;;;26.33;4.82;;;;;;;16.00;32.90;96379.63;10289696;28;19983;-50
2023/01/19 02:48:41;;;;;;;24.20;3.50;;;;;;;15.89;33.07;96380.09;10288245;28;20072;-50
2023/01/19 02:53:51;;;;;;;21.63;3.92;;;;;;;15.83;33.04;96399.53;10286147;28;20061;-51
2023/01/19 02:59:00;;;;;;;20.38;4.15;;;;;;;15.80;32.95;96397.03;10285012;28;20073;-51
2023/01/19 03:04:28;;;;;;;22.37;4.80;;;;;;;15.89;32.64;96401.00;10289141;28;20108;-51
2023/01/19 03:09:55;;;;;;;18.48;4.25;;;;;;;15.92;32.70;96408.72;10288664;28;20450;-51
2023/01/19 03:15:00;;;;;;;20.05;4.50;;;;;;;15.72;32.52;96386.03;10288204;28;20490;-51
2023/01/19 03:20:02;;;;;;;30.23;4.55;;;;;;;15.48;32.35;96356.53;10288848;28;20053;-51
2023/01/19 03:25:02;;;;;;;21.23;4.80;;;;;;;15.84;33.15;96401.22;10296607;28;20073;-50
2023/01/19 03:30:11;;;;;;;16.35;3.60;;;;;;;15.37;32.58;96337.88;10292974;28;20858;-49
2023/01/19 03:35:13;;;;;;;29.00;4.07;;;;;;;15.68;33.38;96405.38;10295184;28;20893;-49
2023/01/19 03:40:12;;;;;;;29.05;5.15;;;;;;;15.64;32.90;96409.03;10291206;28;20698;-51
2023/01/19 03:45:13;;;;;;;22.17;4.50;;;;;;;15.58;33.22;96389.25;10293570;28;20080;-51
2023/01/19 03:50:25;;;;;;;29.33;4.40;;;;;;;15.68;32.97;96419.28;10292938;28;20084;-49
2023/01/19 03:55:25;;;;;;;22.75;4.40;;;;;;;15.59;33.93;96421.47;10294802;28;20069;-50
2023/01/19 04:00:24;;;;;;;22.40;4.90;;;;;;;15.40;34.12;96417.00;10293691;28;20068;-49
2023/01/19 04:05:23;;;;;;;22.50;4.90;;;;;;;15.31;34.35;96422.59;10293668;28;20065;-50
2023/01/19 04:10:23;;;;;;;25.40;4.60;;;;;;;15.19;35.47;96429.19;10292976;28;20080;-49
2023/01/19 04:15:21;;;;;;;29.73;4.80;;;;;;;15.04;35.18;96422.81;10292146;28;20077;-50
2023/01/19 04:20:20;;;;;;;;;;;;;;;14.97;35.61;96416.16;10290494;28;20044;-51
2023/01/19 04:25:20;;;;;;;28.60;4.60;;;;;;;14.79;35.95;96422.94;10293647;28;20713;-49
2023/01/19 04:30:19;;;;;;;25.85;4.55;;;;;;;14.88;36.32;96434.78;10291095;28;20529;-51
2023/01/19 04:35:18;;;;;;;28.15;4.85;;;;;;;14.78;36.78;96444.75;10291130;28;20077;-49
2023/01/19 04:40:17;;;;;;;;;;;;;;;14.78;36.84;96439.53;10292614;28;20153;-49
2023/01/19 04:45:16;;;;;;;31.35;5.25;;;;;;;14.74;37.26;96453.59;10293101;28;20022;-51
2023/01/19 04:50:16;;;;;;;;;;;;;;;14.71;37.66;96439.81;10292044;28;20025;-49
2023/01/19 04:55:15;;;;;;;;;;;;;;;14.66;37.70;96446.94;10293084;28;20017;-49
2023/01/19 05:00:14;;;;;;;24.63;4.70;;;;;;;14.59;38.03;96444.56;10292684;28;19921;-49
2023/01/19 05:05:14;;;;;;;22.13;5.10;;;;;;;14.55;38.20;96460.41;10289074;28;20058;-50
2023/01/19 05:10:13;;;;;;;29.63;6.80;;;;;;;14.40;38.58;96465.31;10290987;28;20057;-49
2023/01/19 05:15:12;;;;;;;;;;;;;;;14.35;39.00;96464.59;10291963;28;20036;-49
2023/01/19 05:20:11;;;;;;;29.92;4.75;;;;;;;14.31;38.89;96470.84;10290010;28;19913;-50
2023/01/19 05:25:10;;;;;;;31.65;4.57;;;;;;;14.28;39.08;96468.34;10291174;28;20818;-49
2023/01/19 05:30:10;;;;;;;;;;;;;;;14.37;38.49;96473.22;10289007;28;20424;-49
2023/01/19 05:35:09;;;;;;;30.40;5.13;;;;;;;14.34;39.00;96491.63;10290895;28;19952;-50
2023/01/19 05:40:08;;;;;;;;;;;;;;;14.30;38.64;96507.44;10290272;28;20316;-50
2023/01/19 05:45:07;;;;;;;30.60;5.77;;;;;;;14.41;38.80;96508.75;10289073;28;20675;-49
2023/01/19 05:50:07;;;;;;;27.83;5.72;;;;;;;14.14;38.57;96475.81;10286381;28;20084;-48
2023/01/19 05:55:06;;;;;;;22.58;4.40;;;;;;;14.34;38.69;96480.34;10289217;28;20542;-51
2023/01/19 06:00:06;;;;;;;27.55;4.80;;;;;;;14.32;38.94;96480.38;10289906;28;20762;-50
2023/01/19 06:05:05;;;;;;;30.20;5.88;;;;;;;14.36;38.56;96473.31;10287718;28;20799;-50
2023/01/19 06:10:04;;;;;;;28.05;4.28;;;;;;;14.31;38.50;96460.41;10288255;28;20069;-49
2023/01/19 06:15:04;;;;;;;25.30;4.93;;;;;;;14.38;38.15;96471.47;10289689;28;20065;-51
2023/01/19 06:20:04;;;;;;;34.17;6.95;;;;;;;14.54;37.54;96484.81;10288663;28;20057;-49
2023/01/19 06:25:03;;;;;;;26.05;4.75;;;;;;;14.67;37.69;96504.34;10288178;28;20069;-50
2023/01/19 06:30:03;;;;;;;26.08;4.70;;;;;;;14.70;37.19;96493.78;10276238;28;20080;-51
2023/01/19 06:35:02;;;;;;;26.10;5.18;;;;;;;14.73;37.10;96496.31;10278485;28;20088;-49
2023/01/19 06:40:02;;;;;;;23.50;3.97;;;;;;;14.95;36.66;96493.72;10288740;28;20058;-49
2023/01/19 06:45:01;;;;;;;22.27;4.55;;;;;;;15.14;36.15;96506.06;10287457;28;20077;-51
2023/01/19 06:50:01;;;;;;;;;;;;;;;15.15;36.41;96505.16;10285857;28;20046;-49
2023/01/19 06:54:59;;;;;;;26.42;7.03;;;;;;;15.25;36.39;96485.59;10289530;28;19971;-49
2023/01/19 07:00:00;;;;;;;;;;;;;;;15.42;36.29;96496.22;10294455;28;20034;-50
2023/01/19 07:04:59;;;;;;;26.90;5.68;;;;;;;15.41;36.26;96498.88;10293101;28;19972;-48
2023/01/19 07:09:58;;;;;;;;;;;;;;;15.41;36.06;96494.53;10291655;28;20034;-49
2023/01/19 07:14:57;;;;;;;33.47;6.70;;;;;;;15.56;36.26;96506.09;10295099;28;20450;-50
2023/01/19 07:19:56;;;;;;;;;;;;;;;15.71;36.04;96496.78;10295823;28;20505;-49
2023/01/19 07:24:55;;;;;;;32.53;6.07;;;;;;;15.64;36.26;96503.16;10292763;28;20639;-51
2023/01/19 07:29:53;;;;;;;;;;;;;;;15.65;36.26;96502.28;10295087;28;20034;-48
2023/01/19 07:34:53;;;;;;;35.30;6.47;;;;;;;15.91;35.66;96516.91;10293071;28;19913;-50
2023/01/19 07:39:51;;;;;;;32.50;8.32;;;;;;;16.00;35.58;96511.28;10295015;28;20088;-51
2023/01/19 07:44:50;;;;;;;28.70;8.38;;;;;;;16.08;35.61;96506.56;10294491;28;20112;-51
2023/01/19 07:49:49;;;;;;;;;;;;;;;16.17;35.64;96510.56;10294840;28;20032;-48
2023/01/19 07:54:49;;;;;;;35.00;6.03;;;;;;;16.27;34.99;96518.84;10290600;28;19913;-49
2023/01/19 07:59:48;;;;;;;32.53;8.65;;;;;;;16.39;34.38;96512.22;10295283;28;20085;-50
2023/01/19 08:04:47;;;;;;;45.10;6.82;;;;;;;16.49;33.73;96517.00;10290363;28;20049;-50
2023/01/19 08:09:46;;;;;;;34.53;9.05;;;;;;;16.65;33.53;96509.31;10288935;28;20508;-51
2023/01/19 08:14:45;;;;;;;35.60;6.93;;;;;;;16.79;33.35;96537.47;10315200;28;20548;-50
2023/01/19 08:19:44;;;;;;;;;;;;;;;16.91;33.25;96542.22;10288639;28;20451;-51
2023/01/19 08:24:43;;;;;;;31.93;5.30;;;;;;;17.10;32.75;96550.09;10291079;28;19987;-49
2023/01/19 08:29:42;;;;;;;39.03;9.13;;;;;;;17.23;32.09;96558.22;10291125;28;20038;-50
2023/01/19 08:34:41;;;;;;;36.03;8.07;;;;;;;17.21;32.15;96575.78;10281533;28;20136;-51
2023/01/19 08:39:40;;;;;;;51.90;19.40;;;;;;;17.43;32.29;96569.56;10289821;28;20137;-51
2023/01/19 08:44:39;;;;;;;37.60;9.35;;;;;;;17.48;31.82;96572.81;10290055;28;20033;-49
2023/01/19 08:49:39;;;;;;;33.42;7.80;;;;;;;17.45;31.61;96562.44;10289605;28;20040;-51
2023/01/19 08:54:38;;;;;;;38.92;12.13;;;;;;;17.77;31.49;96584.53;10287664;28;20176;-51
2023/01/19 08:59:37;;;;;;;60.33;17.17;;;;;;;17.77;31.70;96559.16;10288845;28;20056;-51
2023/01/19 09:04:36;;;;;;;32.65;7.50;;;;;;;17.72;30.98;96527.00;10287217;28;20148;-49
2023/01/19 09:09:36;;;;;;;36.58;6.35;;;;;;;18.14;30.88;96573.06;10286683;28;20113;-48
2023/01/19 09:14:35;;;;;;;42.60;10.48;;;;;;;18.28;30.77;96575.00;10284547;28;20591;-50
2023/01/19 09:19:34;;;;;;;43.28;10.55;;;;;;;18.37;30.47;96581.56;10283117;28;20548;-49
2023/01/19 09:24:33;;;;;;;49.78;8.40;;;;;;;18.51;30.31;96580.88;10269050;28;20042;-49
2023/01/19 09:29:32;;;;;;;39.97;7.45;;;;;;;18.45;29.70;96561.00;10287457;28;20070;-50
2023/01/19 09:34:31;;;;;;;36.10;9.82;;;;;;;18.58;29.57;96563.88;10285714;28;20039;-49
2023/01/19 09:39:30;;;;;;;37.22;8.38;;;;;;;18.84;29.78;96567.78;10278283;28;20390;-50
2023/01/19 09:44:32;;;;;;;28.60;7.40;;;;;;;18.86;29.36;96560.66;10284807;28;20053;-52
2023/01/19 09:49:41;;;;;;;35.25;5.43;;;;;;;18.71;28.20;96503.66;10286103;28;20061;-51
2023/01/19 09:54:52;;;;;;;36.07;6.00;;;;;;;19.20;28.65;96527.25;10288908;28;20053;-51
2023/01/19 09:59:56;;;;;;;37.38;6.15;;;;;;;19.31;28.06;96530.16;10287902;28;20376;-51
2023/01/19 10:05:21;;;;;;;25.83;6.15;;;;;;;19.42;27.60;96512.00;10276127;28;20109;-51
2023/01/19 10:10:34;;;;;;;32.65;5.88;;;;;;;19.29;28.04;96478.56;10276292;28;20076;-48
2023/01/19 10:15:45;;;;;;;33.38;6.95;;;;;;;19.60;28.01;96522.44;10277280;28;20117;-49
2023/01/19 10:20:58;;;;;;;37.53;6.45;;;;;;;19.68;27.96;96528.13;10274445;28;20073;-50
2023/01/19 10:26:03;;;;;;;30.83;6.55;;;;;;;19.53;28.12;96474.53;10288637;28;20065;-50
2023/01/19 10:31:05;;;;;;;34.20;9.95;;;;;;;19.82;28.12;96509.75;10288630;28;20077;-51
2023/01/19 10:36:15;;;;;;;49.72;16.33;;;;;;;19.63;28.66;96467.00;10297146;28;20120;-49
2023/01/19 10:41:37;;;;;;;29.77;6.10;;;;;;;19.43;28.64;96476.84;10296549;28;20084;-51
2023/01/19 10:46:41;;;;;;;24.67;6.45;;;;;;;19.43;28.48;96471.59;10285049;28;20066;-49
2023/01/19 10:51:47;;;;;;;35.75;6.90;;;;;;;19.37;28.42;96471.94;10273234;28;20597;-50
2023/01/19 10:56:59;;;;;;;26.67;5.72;;;;;;;19.27;29.01;96475.19;10291792;28;20069;-51
2023/01/19 11:02:26;;;;;;;27.33;6.63;;;;;;;19.49;29.25;96474.81;10285653;28;20156;-49
2023/01/19 11:07:32;;;;;;;33.78;6.50;;;;;;;19.52;29.39;96475.47;10283702;28;20177;-49
2023/01/19 11:12:31;;;;;;;42.28;6.78;;;;;;;18.92;28.87;96397.34;10273569;28;20074;-51
2023/01/19 11:17:32;;;;;;;32.17;6.15;;;;;;;19.54;29.00;96472.78;10294588;28;20104;-50
2023/01/19 11:22:32;;;;;;;27.65;6.90;;;;;;;19.52;29.21;96453.59;10288553;28;20061;-50
2023/01/19 11:27:35;;;;;;;44.20;9.20;;;;;;;19.19;29.05;96426.50;10283936;28;20133;-49
2023/01/19 11:32:35;;;;;;;26.27;6.47;;;;;;;19.37;29.48;96466.69;10289061;28;20121;-51
2023/01/19 11:37:35;;;;;;;33.08;5.78;;;;;;;19.50;28.99;96455.47;10287750;28;20146;-50
2023/01/19 11:42:38;;;;;;;32.20;6.50;;;;;;;19.61;28.76;96484.66;10291518;28;20069;-49
2023/01/19 11:47:42;;;;;;;28.88;5.45;;;;;;;19.62;28.50;96475.81;10282971;28;20140;-49
2023/01/19 11:52:47;;;;;;;24.67;5.10;;;;;;;19.62;28.24;96476.66;10290714;28;20500;-51
2023/01/19 11:57:52;;;;;;;15.30;4.93;;;;;;;19.77;28.08;96453.88;10289014;28;20065;-51
2023/01/19 12:03:23;;;;;;;19.95;4.03;;;;;;;19.99;27.63;96478.94;10290417;28;20117;-51
2023/01/19 12:08:57;;;;;;;17.08;4.10;;;;;;;19.79;28.26;96472.22;10284009;28;20563;-48
2023/01/19 12:13:58;;;;;;;19.95;4.57;;;;;;;19.70;28.06;96467.47;10288703;28;20076;-50
2023/01/19 12:19:15;;;;;;;18.90;4.30;;;;;;;19.62;28.20;96460.03;10291478;28;20084;-50
2023/01/19 12:24:29;;;;;;;20.37;5.57;;;;;;;19.71;27.64;96456.88;10285318;28;20065;-49
2023/01/19 12:29:31;;;;;;;16.23;3.40;;;;;;;19.80;28.14;96461.59;10332201;28;20069;-49
2023/01/19 12:34:50;;;;;;;13.70;4.00;;;;;;;19.66;27.65;96479.97;10289160;28;20080;-49
2023/01/19 12:39:52;;;;;;;18.38;3.70;;;;;;;19.56;28.05;96473.56;10290879;28;20077;-50
2023/01/19 12:45:24;;;;;;;21.77;3.63;;;;;;;19.64;27.92;96487.97;10273783;28;20130;-48
2023/01/19 12:50:33;;;;;;;20.42;3.22;;;;;;;19.43;28.59;96481.25;10290511;28;20052;-50
2023/01/19 12:55:37;;;;;;;16.60;4.03;;;;;;;19.34;28.52;96451.06;10284310;28;20121;-49
2023/01/19 13:00:41;;;;;;;13.23;4.13;;;;;;;19.23;28.65;96466.63;10285624;28;20118;-50
2023/01/19 13:05:40;;;;;;;15.15;3.88;;;;;;;19.21;29.20;96477.22;10288631;28;20776;-51
2023/01/19 13:11:05;;;;;;;16.17;3.72;;;;;;;19.00;29.14;96487.16;10289171;28;20070;-51
2023/01/19 13:16:26;;;;;;;15.35;3.33;;;;;;;18.85;29.30;96487.13;10287123;28;20065;-51
2023/01/19 13:21:44;;;;;;;11.85;2.75;;;;;;;18.95;29.50;96497.06;10289035;28;20069;-51
2023/01/19 13:27:02;;;;;;;18.08;3.17;;;;;;;18.85;29.73;96500.28;10287084;28;20301;-49
2023/01/19 13:32:18;;;;;;;15.75;3.42;;;;;;;18.86;30.02;96507.25;10285150;28;20069;-50
2023/01/19 13:37:20;;;;;;;15.25;3.13;;;;;;;18.68;29.44;96469.63;10284327;28;20790;-51
2023/01/19 13:42:19;;;;;;;15.77;2.88;;;;;;;18.82;29.80;96475.00;10287202;28;20492;-50
2023/01/19 13:47:22;;;;;;;10.27;2.90;;;;;;;18.85;29.70;96479.25;10278435;28;20346;-49
2023/01/19 13:52:28;;;;;;;21.63;8.80;;;;;;;18.69;29.66;96442.44;10284381;28;20129;-49
2023/01/19 13:57:32;;;;;;;25.45;3.83;;;;;;;18.60;29.97;96467.41;10287570;28;20093;-51
2023/01/19 14:02:32;;;;;;;15.60;3.30;;;;;;;18.39;30.01;96475.50;10286704;28;20057;-51
2023/01/19 14:07:32;;;;;;;14.65;3.83;;;;;;;18.40;29.90;96457.97;10289348;28;20513;-49
2023/01/19 14:12:33;;;;;;;14.20;3.40;;;;;;;18.30;30.24;96427.88;10303217;28;20045;-49
2023/01/19 14:17:33;;;;;;;17.42;3.45;;;;;;;18.26;30.23;96457.84;10279170;28;20153;-49
2023/01/19 14:22:47;;;;;;;18.58;4.85;;;;;;;18.08;31.02;96449.16;10270330;28;20065;-51
2023/01/19 14:27:46;;;;;;;16.85;4.03;;;;;;;17.89;31.58;96457.13;10285178;28;20076;-51
2023/01/19 14:32:46;;;;;;;21.45;3.83;;;;;;;17.61;32.11;96457.63;10281944;28;20037;-51
2023/01/19 14:37:48;;;;;;;13.35;3.20;;;;;;;17.45;32.41;96468.03;10286389;28;20118;-51
2023/01/19 14:43:02;;;;;;;11.15;3.00;;;;;;;17.32;32.51;96454.69;10286275;28;20080;-50
2023/01/19 14:48:04;;;;;;;16.73;3.65;;;;;;;16.96;32.56;96417.97;10286746;28;20469;-51
2023/01/19 14:53:15;;;;;;;17.63;4.00;;;;;;;17.22;32.55;96487.53;10287072;28;20058;-48
2023/01/19 14:58:19;;;;;;;13.23;3.20;;;;;;;16.82;32.58;96422.13;10286877;28;20064;-49
2023/01/19 15:03:18;;;;;;;19.52;5.60;;;;;;;16.84;33.20;96483.16;10277600;28;20476;-49
2023/01/19 15:08:32;;;;;;;13.43;3.83;;;;;;;16.61;33.18;96465.00;10286463;28;20449;-48
2023/01/19 15:13:31;;;;;;;29.27;8.63;;;;;;;16.55;33.53;96486.22;10280501;28;20076;-51
2023/01/19 15:18:30;;;;;;;16.25;5.75;;;;;;;16.54;33.68;96508.09;10290121;28;20057;-51
2023/01/19 15:23:31;;;;;;;20.15;4.15;;;;;;;16.14;34.25;96478.41;10291826;28;20061;-49
2023/01/19 15:28:31;;;;;;;19.40;3.78;;;;;;;16.27;34.18;96514.47;10292553;28;20085;-51
2023/01/19 15:33:30;;;;;;;15.50;5.28;;;;;;;16.19;34.74;96513.97;10290956;28;20069;-48
2023/01/19 15:38:29;;;;;;;24.30;5.75;;;;;;;16.01;34.89;96502.50;10292521;28;20041;-50
2023/01/19 15:43:28;;;;;;;16.83;3.60;;;;;;;15.63;35.57;96480.56;10288506;28;20022;-49
2023/01/19 15:48:27;;;;;;;29.58;12.68;;;;;;;15.80;35.97;96503.44;10291821;28;20096;-50
2023/01/19 15:53:26;;;;;;;13.73;3.78;;;;;;;15.56;36.18;96506.09;10292452;28;20080;-50
2023/01/19 15:58:25;;;;;;;11.40;3.90;;;;;;;15.66;36.74;96525.72;10291714;28;20061;-50
2023/01/19 16:03:24;;;;;;;18.80;4.70;;;;;;;15.61;36.31;96543.38;10291121;28;20036;-51
2023/01/19 16:08:23;;;;;;;13.25;4.13;;;;;;;15.65;36.80;96550.19;10292250;28;20080;-49
2023/01/19 16:13:23;;;;;;;15.50;4.03;;;;;;;15.61;37.02;96545.16;10290819;28;20053;-49
2023/01/19 16:18:22;;;;;;;14.55;5.80;;;;;;;15.43;37.08;96525.81;10291351;28;20121;-49
2023/01/19 16:23:21;;;;;;;;;;;;;;;15.49;36.90;96550.88;10291552;28;20134;-50
2023/01/19 16:28:20;;;;;;;13.50;3.37;;;;;;;15.40;37.43;96571.22;10287073;28;19996;-51
2023/01/19 16:33:19;;;;;;;;;;;;;;;15.37;37.34;96568.75;10291547;28;20037;-50
2023/01/19 16:38:18;;;;;;;18.97;4.07;;;;;;;15.22;37.34;96562.34;10291663;28;19917;-50
2023/01/19 16:43:17;;;;;;;20.17;6.13;;;;;;;15.32;38.29;96593.34;10289641;28;20061;-50
2023/01/19 16:48:16;;;;;;;17.08;4.28;;;;;;;15.42;38.18;96618.22;10289210;28;20072;-52
2023/01/19 16:53:15;;;;;;;;;;;;;;;15.43;38.27;96630.38;10291123;28;20108;-49
2023/01/19 16:58:14;;;;;;;19.03;5.17;;;;;;;15.34;38.20;96642.06;10291412;28;19996;-49
2023/01/19 17:03:13;;;;;;;;;;;;;;;15.35;38.13;96656.81;10287954;28;20111;-51
2023/01/19 17:08:12;;;;;;;16.57;7.77;;;;;;;15.47;37.61;96663.34;10284865;28;19944;-52
2023/01/19 17:13:10;;;;;;;;;;;;;;;15.52;37.62;96671.03;10281134;28;20445;-49
2023/01/19 17:18:09;;;;;;;12.18;4.57;;;;;;;15.56;37.85;96678.69;10289959;28;19925;-51
2023/01/19 17:23:08;;;;;;;;;;;;;;;15.53;37.72;96691.88;10286388;28;20092;-48
2023/01/19 17:28:07;;;;;;;21.60;7.10;;;;;;;15.25;41.57;96672.00;10290865;28;19921;-50
2023/01/19 17:33:06;;;;;;;;;;;;;;;15.03;41.81;96689.34;10288438;28;20206;-51
2023/01/19 17:38:04;;;;;;;19.67;5.03;;;;;;;14.34;46.82;96700.38;10289027;28;20027;-51
2023/01/19 17:43:03;;;;;;;;;;;;;;;14.18;47.79;96699.19;10279168;28;20057;-49
2023/01/19 17:48:18;;;;;;;19.17;5.65;;;;;;;13.90;49.97;96728.75;10224843;28;20016;-52
2023/01/19 17:53:17;;;;;;;39.70;21.67;;;;;;;13.67;50.64;96729.44;10284968;28;20080;-50
2023/01/19 17:58:15;;;;;;;;;;;;;;;13.32;52.90;96748.66;10287558;28;20032;-48
2023/01/19 18:03:14;;;;;;;20.45;9.48;;;;;;;13.31;52.93;96758.25;10288822;28;20388;-48
2023/01/19 18:08:13;;;;;;;27.38;9.48;;;;;;;13.09;54.24;96773.63;10287688;28;20026;-49
2023/01/19 18:13:12;;;;;;;;;;;;;;;12.71;56.60;96774.59;10289425;28;20127;-50
2023/01/19 18:18:11;;;;;;;19.42;6.03;;;;;;;12.23;58.94;96767.06;10288451;28;19948;-51
2023/01/19 18:23:10;;;;;;;;;;;;;;;12.08;59.76;96760.47;10289197;28;20041;-49
2023/01/19 18:28:09;;;;;;;60.30;28.50;;;;;;;12.17;60.44;96762.84;10288970;28;20650;-48
2023/01/19 18:33:08;;;;;;;20.75;9.73;;;;;;;12.22;60.31;96781.81;10286598;28;20711;-50
2023/01/19 18:38:07;;;;;;;17.58;8.15;;;;;;;12.03;61.30;96767.50;10288789;28;20041;-49
2023/01/19 18:43:07;;;;;;;17.27;6.32;;;;;;;12.08;61.45;96791.66;10288269;28;20121;-51
2023/01/19 18:48:06;;;;;;;19.45;5.10;;;;;;;11.62;64.86;96766.69;10289659;28;20108;-51
2023/01/19 18:53:05;;;;;;;35.70;19.63;;;;;;;11.19;68.97;96807.34;10291743;28;20057;-50
2023/01/19 18:58:05;;;;;;;12.40;4.78;;;;;;;10.90;70.60;96817.41;10296787;28;20056;-50
2023/01/19 19:03:09;;;;;;;16.92;5.68;;;;;;;10.62;73.36;96830.81;10294801;28;20080;-48
2023/01/19 19:08:08;;;;;;;55.47;30.27;;;;;;;10.46;74.69;96788.69;10295141;28;20502;-48
2023/01/19 19:13:08;;;;;;;;;;;;;;;10.71;75.65;96848.81;10296497;28;20065;-50
2023/01/19 19:18:12;;;;;;;26.48;13.95;;;;;;;10.83;76.25;96852.94;10292397;28;19952;-48
2023/01/19 19:23:11;;;;;;;18.13;6.28;;;;;;;10.50;78.55;96870.75;10296036;28;20065;-50
2023/01/19 19:28:09;;;;;;;20.42;7.65;;;;;;;9.91;80.71;96831.84;10295624;28;20085;-48
2023/01/19 19:33:09;;;;;;;31.38;15.85;;;;;;;10.06;81.22;96841.13;10293347;28;20038;-49
2023/01/19 19:38:07;;;;;;;38.03;16.77;;;;;;;10.09;83.80;96879.97;10293698;28;20065;-48
2023/01/19 19:43:06;;;;;;;43.28;19.30;;;;;;;10.16;83.58;96878.16;10292656;28;20034;-49
2023/01/19 19:48:05;;;;;;;22.35;7.30;;;;;;;10.15;84.59;96885.09;10294536;28;20034;-51
2023/01/19 19:53:04;;;;;;;36.60;19.33;;;;;;;10.10;86.01;96899.84;10292306;28;20269;-48
2023/01/19 19:58:03;;;;;;;14.48;6.20;;;;;;;9.78;87.50;96869.13;10291130;28;20145;-48
2023/01/19 20:03:03;;;;;;;71.78;35.42;;;;;;;9.35;88.67;96807.50;10293514;28;20833;-50
2023/01/19 20:08:02;;;;;;;34.13;17.10;;;;;;;9.61;89.44;96829.66;10292446;28;20065;-49
2023/01/19 20:13:01;;;;;;;24.08;11.95;;;;;;;9.92;90.36;96866.38;10293798;28;20045;-50
2023/01/19 20:18:00;;;;;;;30.17;13.90;;;;;;;9.85;90.61;96868.19;10293505;28;20074;-50
2023/01/19 20:23:02;;;;;;;45.80;21.15;;;;;;;9.82;91.32;96880.34;10324630;28;20030;-49
2023/01/19 20:28:01;;;;;;;30.67;13.45;;;;;;;9.93;91.05;96875.84;10293020;28;20833;-50
2023/01/19 20:33:00;;;;;;;25.42;9.63;;;;;;;10.01;91.36;96880.97;10292011;28;20508;-49
2023/01/19 20:37:59;;;;;;;34.35;17.95;;;;;;;9.86;92.02;96872.47;10290710;28;20074;-50
2023/01/19 20:42:58;;;;;;;88.80;39.20;;;;;;;9.63;93.75;96896.09;10288334;28;20052;-51
2023/01/19 20:47:57;;;;;;;82.30;35.92;;;;;;;9.55;94.18;96895.31;10293128;28;20026;-48
2023/01/19 20:52:56;;;;;;;84.35;45.33;;;;;;;9.41;95.05;96894.59;10291931;28;20030;-48
2023/01/19 20:57:55;;;;;;;20.17;8.80;;;;;;;9.19;95.77;96857.69;10291335;28;20789;-47
2023/01/19 21:02:55;;;;;;;29.73;14.45;;;;;;;9.20;96.71;96878.38;10292487;28;20381;-49
2023/01/19 21:07:54;;;;;;;94.20;52.33;;;;;;;9.21;97.44;96858.50;10289644;28;20065;-49
2023/01/19 21:12:53;;;;;;;21.92;7.93;;;;;;;8.90;98.27;96853.63;10291291;28;20026;-50
2023/01/19 21:17:52;;;;;;;26.77;10.18;;;;;;;8.86;98.48;96842.47;10289252;28;20140;-50
2023/01/19 21:22:51;;;;;;;22.38;7.63;;;;;;;8.91;99.10;96856.22;10291289;28;20042;-48
2023/01/19 21:27:50;;;;;;;66.55;28.73;;;;;;;9.07;100.00;96856.06;10288121;28;20080;-47
2023/01/19 21:32:49;;;;;;;22.73;9.15;;;;;;;8.99;99.95;96824.22;10290520;28;20048;-47
2023/01/19 21:37:48;;;;;;;20.70;9.73;;;;;;;9.10;100.00;96833.59;10291042;28;20117;-48
2023/01/19 21:42:47;;;;;;;24.77;9.00;;;;;;;9.20;100.00;96815.38;10290009;28;20076;-49
2023/01/19 21:47:45;;;;;;;63.85;32.92;;;;;;;9.22;99.89;96830.03;10286903;28;20059;-49
2023/01/19 21:52:44;;;;;;;31.20;15.93;;;;;;;9.17;100.00;96795.56;10295325;28;20037;-47
2023/01/19 21:57:43;;;;;;;53.10;27.48;;;;;;;9.32;100.00;96831.69;10287153;28;20041;-46
2023/01/19 22:02:42;;;;;;;30.33;11.98;;;;;;;9.24;99.76;96786.88;10287815;28;20037;-48
2023/01/19 22:07:42;;;;;;;27.17;11.07;;;;;;;9.42;100.00;96778.06;10283153;28;20508;-47
2023/01/19 22:12:41;;;;;;;23.23;12.60;;;;;;;9.15;100.00;96763.66;10287500;28;20084;-49
2023/01/19 22:17:40;;;;;;;76.78;48.50;;;;;;;9.02;100.00;96741.38;10286806;28;20032;-53
2023/01/19 22:22:38;;;;;;;173.57;95.63;;;;;;;8.66;100.00;96765.03;10286378;28;20100;-48
2023/01/19 22:27:37;;;;;;;18.70;7.57;;;;;;;8.79;100.00;96744.25;10292931;28;20029;-49
2023/01/19 22:32:36;;;;;;;42.22;23.88;;;;;;;9.02;100.00;96770.72;10314637;28;20049;-48
2023/01/19 22:37:36;;;;;;;96.63;55.35;;;;;;;8.84;100.00;96742.44;10299812;28;20133;-47
2023/01/19 22:42:35;;;;;;;48.60;27.35;;;;;;;8.96;100.00;96782.88;10299933;28;20069;-48
2023/01/19 22:47:34;;;;;;;43.63;19.75;;;;;;;9.10;100.00;96799.94;10301260;28;20032;-46
2023/01/19 22:52:33;;;;;;;33.90;15.98;;;;;;;8.76;100.00;96702.84;10294105;28;20758;-48
2023/01/19 22:57:35;;;;;;;29.65;18.90;;;;;;;8.71;100.00;96750.31;10300337;28;20037;-47
2023/01/19 23:02:34;;;;;;;20.45;9.15;;;;;;;8.60;100.00;96759.94;10300928;28;20077;-49
2023/01/19 23:07:33;;;;;;;25.10;15.30;;;;;;;8.31;100.00;96752.41;10299339;28;20077;-48
2023/01/19 23:12:32;;;;;;;47.30;25.75;;;;;;;8.37;100.00;96754.09;10297540;28;20038;-48
2023/01/19 23:17:31;;;;;;;15.00;5.93;;;;;;;8.32;100.00;96772.25;10297239;28;20109;-48
2023/01/19 23:22:30;;;;;;;8.15;3.28;;;;;;;8.19;100.00;96750.78;10298747;28;20033;-49
2023/01/19 23:27:29;;;;;;;5.72;2.72;;;;;;;7.86;100.00;96736.38;10307180;28;20029;-48
2023/01/19 23:32:28;;;;;;;5.53;3.03;;;;;;;7.63;100.00;96727.06;10297416;28;20141;-48